Time;durP1;ratioP1;P1;durP2;ratioP2;P2;SDS_P1;SDS_P2;PMS_P1;PMS_P2;Temp;Humidity;BMP_temperature;BMP_pressure;BME280_temperature;BME280_humidity;BME280_pressure;Samples;Min_cycle;Max_cycle;Signal;HPM_P1;HPM_P2
2021/03/29 00:02:05;;;;;;;119.40;61.80;;;179.50;1920.00;;;;;;5034971;28;20100;-57
2021/03/29 00:04:31;;;;;;;118.07;63.20;;;179.50;1920.00;;;;;;5035210;28;20030;-57
2021/03/29 00:07:01;;;;;;;118.40;61.80;;;179.50;1920.00;;;;;;5034768;28;20471;-63
2021/03/29 00:09:29;;;;;;;127.85;66.30;;;179.50;1920.00;;;;;;5035068;28;20379;-60
2021/03/29 00:11:55;;;;;;;144.73;71.80;;;179.50;1920.00;;;;;;5034929;28;20066;-58
2021/03/29 00:14:25;;;;;;;140.60;74.65;;;179.50;1945.60;;;;;;5034855;28;20022;-57
2021/03/29 00:16:52;;;;;;;133.07;70.25;;;179.50;1971.20;;;;;;5034507;28;20386;-61
2021/03/29 00:19:18;;;;;;;114.35;60.75;;;179.50;1971.20;;;;;;5034943;28;20095;-57
2021/03/29 00:21:44;;;;;;;118.80;61.08;;;179.40;1945.60;;;;;;5034497;28;20021;-58
2021/03/29 00:24:10;;;;;;;125.00;65.22;;;179.40;1945.60;;;;;;5034505;28;20542;-58
2021/03/29 00:26:37;;;;;;;124.80;61.78;;;179.50;1971.20;;;;;;5034553;28;20028;-60
2021/03/29 00:29:04;;;;;;;116.95;59.08;;;179.40;1971.20;;;;;;5034089;28;20095;-58
2021/03/29 00:31:31;;;;;;;106.28;53.15;;;179.50;1971.20;;;;;;5034148;28;20371;-63
2021/03/29 00:33:58;;;;;;;101.43;50.70;;;179.40;1971.20;;;;;;5034646;28;20045;-56
2021/03/29 00:36:25;;;;;;;85.25;44.70;;;179.30;1971.20;;;;;;5034598;28;20092;-57
2021/03/29 00:38:53;;;;;;;83.05;44.05;;;179.30;1971.20;;;;;;5034201;28;20022;-58
2021/03/29 00:41:20;;;;;;;80.93;42.75;;;179.20;1971.20;;;;;;5034412;28;20032;-61
2021/03/29 00:43:47;;;;;;;77.80;38.60;;;154.50;1996.80;;;;;;5034239;28;20510;-57
2021/03/29 00:46:14;;;;;;;78.15;41.50;;;154.40;2022.40;;;;;;5034020;28;20048;-59
2021/03/29 00:48:41;;;;;;;87.82;43.83;;;154.30;2022.40;;;;;;5034113;28;20042;-62
2021/03/29 00:51:15;;;;;;;76.93;40.05;;;154.20;2022.40;;;;;;5034424;28;20081;-58
2021/03/29 00:53:47;;;;;;;67.25;35.38;;;154.10;2048.00;;;;;;5034194;28;20021;-60
2021/03/29 00:56:13;;;;;;;60.17;30.65;;;154.00;2073.60;;;;;;5034057;28;20079;-63
2021/03/29 00:58:40;;;;;;;60.97;33.17;;;154.00;2073.60;;;;;;5033750;28;20459;-59
2021/03/29 01:01:06;;;;;;;64.90;33.35;;;154.00;2073.60;;;;;;5033937;28;20029;-57
2021/03/29 01:03:33;;;;;;;78.07;41.45;;;154.00;2073.60;;;;;;5033754;28;20383;-59
2021/03/29 01:06:13;;;;;;;91.68;46.92;;;154.00;2073.60;;;;;;5034276;28;20041;-59
2021/03/29 01:08:43;;;;;;;113.00;59.85;;;154.00;2073.60;;;;;;5034037;28;20412;-60
2021/03/29 01:11:13;;;;;;;131.57;65.50;;;154.00;2073.60;;;;;;5033828;28;20036;-58
2021/03/29 01:13:48;;;;;;;130.75;65.05;;;154.10;2073.60;;;;;;5033627;28;20026;-57
2021/03/29 01:16:17;;;;;;;123.05;63.08;;;154.10;2073.60;;;;;;5033889;28;20344;-57
2021/03/29 01:18:46;;;;;;;118.80;60.53;;;154.10;2073.60;;;;;;5033712;28;20026;-62
2021/03/29 01:21:40;;;;;;;114.45;59.72;;;154.10;2099.20;;;;;;5033808;28;20025;-57
2021/03/29 01:24:34;;;;;;;116.85;59.20;;;154.10;2099.20;;;;;;5033762;28;20029;-58
2021/03/29 01:27:00;;;;;;;120.85;59.00;;;154.10;2099.20;;;;;;5033669;28;20033;-59
2021/03/29 01:29:31;;;;;;;118.03;58.80;;;154.00;2124.80;;;;;;5033310;28;20052;-62
2021/03/29 01:32:01;;;;;;;107.60;57.10;;;154.00;2124.80;;;;;;5033393;28;20097;-62
2021/03/29 01:34:30;;;;;;;103.75;52.75;;;154.00;2150.40;;;;;;5033487;28;20479;-59
2021/03/29 01:37:00;;;;;;;88.63;46.40;;;154.00;2150.40;;;;;;5033752;28;20036;-61
2021/03/29 01:39:27;;;;;;;86.80;44.67;;;154.00;2150.40;;;;;;5033406;28;20030;-62
2021/03/29 01:41:54;;;;;;;82.22;40.95;;;154.00;2150.40;;;;;;5033571;28;20471;-60
2021/03/29 01:44:20;;;;;;;77.78;38.17;;;154.00;2176.00;;;;;;5033638;28;20033;-57
2021/03/29 01:46:47;;;;;;;68.18;36.63;;;154.00;2176.00;;;;;;5033210;28;20112;-58
2021/03/29 01:49:13;;;;;;;62.30;32.70;;;154.00;2176.00;;;;;;5033063;28;20068;-61
2021/03/29 01:51:39;;;;;;;59.63;31.05;;;154.10;2201.60;;;;;;5033068;28;20432;-55
2021/03/29 01:54:06;;;;;;;51.40;29.20;;;153.90;2201.60;;;;;;5033535;28;20108;-61
2021/03/29 01:56:32;;;;;;;56.10;30.17;;;153.90;2227.20;;;;;;5033411;28;20348;-64
2021/03/29 01:58:58;;;;;;;51.40;29.65;;;153.90;2227.20;;;;;;5033469;28;20041;-58
2021/03/29 02:01:24;;;;;;;47.60;25.95;;;153.90;2227.20;;;;;;5032237;28;20379;-63
2021/03/29 02:03:50;;;;;;;43.08;23.48;;;153.90;2252.80;;;;;;5030442;28;20429;-56
2021/03/29 02:06:17;;;;;;;48.90;23.77;;;153.90;2252.80;;;;;;5030350;28;20030;-56
2021/03/29 02:08:44;;;;;;;47.85;26.73;;;153.80;2252.80;;;;;;5030374;28;20674;-58
2021/03/29 02:11:11;;;;;;;35.50;19.40;;;153.80;2252.80;;;;;;5030591;28;20368;-63
2021/03/29 02:13:43;;;;;;;34.03;17.83;;;153.80;2252.80;;;;;;5030708;28;20021;-58
2021/03/29 02:16:13;;;;;;;34.03;18.58;;;153.80;2252.80;;;;;;5032130;28;20026;-57
2021/03/29 02:18:41;;;;;;;34.03;17.55;;;153.90;2252.80;;;;;;5034114;28;20036;-60
2021/03/29 02:21:14;;;;;;;35.42;18.63;;;153.80;2252.80;;;;;;5033772;28;20112;-65
2021/03/29 02:23:45;;;;;;;34.72;18.65;;;153.80;2252.80;;;;;;5033974;28;20025;-61
2021/03/29 02:26:11;;;;;;;32.85;17.25;;;153.80;2252.80;;;;;;5032751;28;20025;-57
2021/03/29 02:28:39;;;;;;;29.08;17.17;;;153.80;2252.80;;;;;;5032576;28;20483;-57
2021/03/29 02:31:06;;;;;;;31.90;17.73;;;153.80;2252.80;;;;;;5032594;28;20029;-62
2021/03/29 02:33:33;;;;;;;30.38;16.60;;;153.80;2252.80;;;;;;5032746;28;20413;-58
2021/03/29 02:35:59;;;;;;;34.28;19.05;;;153.80;2227.20;;;;;;5032943;28;20029;-63
2021/03/29 02:38:25;;;;;;;32.78;19.05;;;153.80;2227.20;;;;;;5032602;28;20067;-67
2021/03/29 02:40:53;;;;;;;33.95;18.70;;;153.80;2227.20;;;;;;5031117;28;20033;-57
2021/03/29 02:43:20;;;;;;;36.55;20.13;;;153.80;2227.20;;;;;;5033038;28;20025;-62
2021/03/29 02:45:54;;;;;;;40.25;22.27;;;153.80;2227.20;;;;;;5032443;28;20075;-61
2021/03/29 02:48:26;;;;;;;38.93;21.67;;;153.70;2227.20;;;;;;5030366;28;20029;-57
2021/03/29 02:50:56;;;;;;;41.75;21.60;;;153.70;2201.60;;;;;;5032590;28;20025;-56
2021/03/29 02:53:33;;;;;;;41.40;21.25;;;153.80;2201.60;;;;;;5032375;28;20040;-60
2021/03/29 02:56:03;;;;;;;40.50;20.83;;;153.70;2201.60;;;;;;5030505;28;20083;-61
2021/03/29 02:58:31;;;;;;;39.22;20.60;;;153.70;2201.60;;;;;;5032239;28;20095;-59
2021/03/29 03:00:57;;;;;;;43.05;22.10;;;153.70;2201.60;;;;;;5029658;28;20490;-62
2021/03/29 03:03:25;;;;;;;39.85;21.60;;;153.70;2201.60;;;;;;5032188;28;20022;-57
2021/03/29 03:05:52;;;;;;;42.92;22.08;;;153.70;2201.60;;;;;;5031960;28;20083;-60
2021/03/29 03:08:20;;;;;;;40.15;21.50;;;153.70;2201.60;;;;;;5034389;28;20041;-59
2021/03/29 03:10:46;;;;;;;36.40;20.00;;;153.60;2176.00;;;;;;5034793;28;20026;-57
2021/03/29 03:13:12;;;;;;;39.40;20.90;;;153.60;2176.00;;;;;;5033280;28;20155;-61
2021/03/29 03:15:39;;;;;;;42.85;22.83;;;153.60;2201.60;;;;;;5032076;28;20029;-57
2021/03/29 03:18:08;;;;;;;42.28;22.10;;;153.60;2176.00;;;;;;5034659;28;20123;-60
2021/03/29 03:20:36;;;;;;;42.38;21.98;;;153.60;2201.60;;;;;;5034621;28;20100;-59
2021/03/29 03:23:12;;;;;;;44.92;21.55;;;128.90;2201.60;;;;;;5034413;28;20100;-59
2021/03/29 03:25:44;;;;;;;39.70;21.02;;;128.90;2201.60;;;;;;5032184;28;20032;-61
2021/03/29 03:28:14;;;;;;;41.40;21.20;;;128.90;2201.60;;;;;;5034140;28;20763;-66
2021/03/29 03:30:49;;;;;;;39.53;20.10;;;128.90;2201.60;;;;;;5032299;28;20041;-60
2021/03/29 03:33:19;;;;;;;39.20;20.25;;;128.90;2176.00;;;;;;5031904;28;20033;-62
2021/03/29 03:35:46;;;;;;;38.75;19.65;;;128.80;2201.60;;;;;;5033575;28;20041;-58
2021/03/29 03:38:34;;;;;;;37.15;18.88;;;128.80;2176.00;;;;;;5035475;28;20018;-63
2021/03/29 03:41:20;;;;;;;32.17;17.52;;;128.90;2176.00;;;;;;5035600;28;20022;-65
2021/03/29 03:43:53;;;;;;;37.53;19.17;;;128.80;2176.00;;;;;;5034539;28;20034;-66
2021/03/29 03:46:26;;;;;;;40.97;21.02;;;128.80;2201.60;;;;;;5034068;28;20017;-65
2021/03/29 03:48:55;;;;;;;44.50;23.23;;;128.80;2201.60;;;;;;5031356;28;20029;-58
2021/03/29 03:51:27;;;;;;;47.13;23.80;;;128.80;2201.60;;;;;;5034596;28;20064;-60
2021/03/29 03:53:53;;;;;;;51.92;26.77;;;128.90;2201.60;;;;;;5031768;28;20021;-67
2021/03/29 03:56:20;;;;;;;51.88;26.52;;;128.80;2201.60;;;;;;5033951;28;20068;-67
2021/03/29 03:58:47;;;;;;;50.85;23.88;;;128.80;2227.20;;;;;;5032493;28;20025;-57
2021/03/29 04:01:13;;;;;;;42.08;22.08;;;128.80;2201.60;;;;;;5033483;28;20021;-64
2021/03/29 04:03:39;;;;;;;35.50;20.25;;;128.80;2201.60;;;;;;5033088;28;20395;-58
2021/03/29 04:06:05;;;;;;;35.80;19.27;;;128.70;2201.60;;;;;;5033658;28;20028;-60
2021/03/29 04:08:31;;;;;;;34.38;19.35;;;128.60;2201.60;;;;;;5033338;28;20072;-60
2021/03/29 04:10:59;;;;;;;35.00;18.48;;;128.50;2201.60;;;;;;5033617;28;20037;-65
2021/03/29 04:13:29;;;;;;;35.83;18.92;;;128.50;2227.20;;;;;;5033685;28;20027;-57
2021/03/29 04:16:00;;;;;;;34.53;18.15;;;128.40;2227.20;;;;;;5033329;28;20025;-58
2021/03/29 04:18:26;;;;;;;32.35;18.60;;;128.40;2227.20;;;;;;5033235;28;20018;-61
2021/03/29 04:20:53;;;;;;;35.05;17.90;;;128.30;2227.20;;;;;;5033276;28;20479;-68
2021/03/29 04:23:22;;;;;;;31.92;17.20;;;128.20;2227.20;;;;;;5032975;28;20024;-62
2021/03/29 04:25:47;;;;;;;28.80;15.65;;;128.20;2227.20;;;;;;5033331;28;20100;-59
2021/03/29 04:28:13;;;;;;;33.60;16.77;;;128.10;2227.20;;;;;;5032417;28;20156;-65
2021/03/29 04:30:39;;;;;;;28.30;15.05;;;128.10;2227.20;;;;;;5032746;28;20037;-62
2021/03/29 04:33:06;;;;;;;31.80;15.05;;;128.00;2227.20;;;;;;5032689;28;20028;-63
2021/03/29 04:35:32;;;;;;;30.13;14.60;;;128.00;2227.20;;;;;;5033221;28;20445;-59
2021/03/29 04:37:58;;;;;;;28.08;14.38;;;103.30;2201.60;;;;;;5033659;28;20026;-61
2021/03/29 04:40:25;;;;;;;34.53;16.75;;;103.30;2201.60;;;;;;5034174;28;20040;-62
2021/03/29 04:42:52;;;;;;;34.28;15.13;;;103.30;2227.20;;;;;;5033091;28;20402;-60
2021/03/29 04:45:18;;;;;;;27.23;14.30;;;128.00;2252.80;;;;;;5031365;28;20087;-66
2021/03/29 04:47:45;;;;;;;35.30;17.58;;;128.00;2252.80;;;;;;5031462;28;20052;-61
2021/03/29 04:50:12;;;;;;;27.77;14.40;;;128.20;2252.80;;;;;;5028589;28;20041;-66
2021/03/29 04:52:38;;;;;;;25.98;13.30;;;128.30;2227.20;;;;;;5032255;28;20088;-65
2021/03/29 04:55:05;;;;;;;30.83;13.00;;;128.30;2227.20;;;;;;5033890;28;20467;-67
2021/03/29 04:57:31;;;;;;;28.63;12.57;;;128.30;2227.20;;;;;;5031571;28;20455;-65
2021/03/29 04:59:56;;;;;;;21.38;11.77;;;128.20;2227.20;;;;;;5033842;28;20104;-61
2021/03/29 05:02:22;;;;;;;21.42;11.60;;;128.20;2227.20;;;;;;5030864;28;20112;-64
2021/03/29 05:04:48;;;;;;;23.05;11.32;;;128.20;2252.80;;;;;;5033733;28;20413;-59
2021/03/29 05:07:14;;;;;;;23.67;12.52;;;128.30;2227.20;;;;;;5031288;28;20382;-62
2021/03/29 05:09:40;;;;;;;22.98;11.32;;;128.40;2252.80;;;;;;5033595;28;20068;-58
2021/03/29 05:12:17;;;;;;;22.30;11.23;;;128.50;2227.20;;;;;;5031518;28;20033;-60
2021/03/29 05:14:43;;;;;;;19.33;9.98;;;128.60;2252.80;;;;;;5033430;28;20469;-67
2021/03/29 05:17:10;;;;;;;16.92;8.32;;;128.70;2227.20;;;;;;5029377;28;20033;-68
2021/03/29 05:19:36;;;;;;;17.50;8.88;;;128.80;2227.20;;;;;;5032824;28;20092;-58
2021/03/29 05:22:03;;;;;;;18.48;9.52;;;128.80;2227.20;;;;;;5032124;28;20109;-64
2021/03/29 05:24:29;;;;;;;21.75;12.10;;;153.70;2227.20;;;;;;5033894;28;20094;-62
2021/03/29 05:26:55;;;;;;;40.20;23.40;;;153.70;2227.20;;;;;;5032753;28;20041;-61
2021/03/29 05:29:27;;;;;;;47.97;23.95;;;153.90;2227.20;;;;;;5014167;28;20046;-59
2021/03/29 05:31:56;;;;;;;216.18;69.82;;;154.10;2201.60;;;;;;5026209;28;20030;-59
2021/03/29 05:34:22;;;;;;;241.90;82.63;;;154.40;2176.00;;;;;;5017665;28;20400;-59
2021/03/29 05:36:48;;;;;;;54.85;22.48;;;179.30;2150.40;;;;;;5027682;28;20022;-62
2021/03/29 05:39:14;;;;;;;32.75;15.25;;;179.40;2124.80;;;;;;5024646;28;20113;-61
2021/03/29 05:41:40;;;;;;;24.75;12.52;;;179.50;2099.20;;;;;;5033841;28;20472;-65
2021/03/29 05:44:08;;;;;;;24.55;11.77;;;179.50;2099.20;;;;;;5033567;28;20025;-60
2021/03/29 05:46:43;;;;;;;24.33;11.57;;;179.50;2099.20;;;;;;5026774;28;20066;-58
2021/03/29 05:49:08;;;;;;;31.20;18.65;;;179.50;2099.20;;;;;;5012672;28;20026;-59
2021/03/29 05:51:38;;;;;;;64.05;34.97;;;179.60;2124.80;;;;;;5024323;28;20056;-59
2021/03/29 05:54:06;;;;;;;60.03;33.03;;;179.70;2073.60;;;;;;5033307;28;20031;-65
2021/03/29 05:56:39;;;;;;;43.45;26.27;;;179.80;2073.60;;;;;;5036139;28;20037;-62
2021/03/29 05:59:09;;;;;;;59.63;30.10;;;179.90;2048.00;;;;;;5033892;28;20026;-64
2021/03/29 06:01:45;;;;;;;57.92;30.25;;;180.10;2022.40;;;;;;5031615;28;20044;-59
2021/03/29 06:04:15;;;;;;;44.25;22.48;;;204.90;2022.40;;;;;;5034179;28;20071;-65
2021/03/29 06:06:42;;;;;;;50.95;22.55;;;205.00;2048.00;;;;;;5033869;28;20029;-58
2021/03/29 06:09:09;;;;;;;60.63;21.60;;;205.00;2048.00;;;;;;5035395;28;20420;-63
2021/03/29 06:11:36;;;;;;;63.88;25.42;;;205.10;2048.00;;;;;;5035536;28;20022;-63
2021/03/29 06:14:22;;;;;;;84.85;39.00;;;205.40;2048.00;;;;;;5034953;28;20048;-61
2021/03/29 06:17:02;;;;;;;67.88;33.45;;;205.50;2048.00;;;;;;5033149;28;20026;-59
2021/03/29 06:19:48;;;;;;;54.72;26.65;;;205.60;2048.00;;;;;;5032804;28;20104;-62
2021/03/29 06:22:34;;;;;;;48.95;23.15;;;205.70;2022.40;;;;;;5032512;28;20026;-62
2021/03/29 06:25:06;;;;;;;32.35;17.42;;;230.50;2022.40;;;;;;5035458;28;20120;-58
2021/03/29 06:27:56;;;;;;;23.85;13.82;;;230.60;2022.40;;;;;;5034446;28;20037;-62
2021/03/29 06:30:35;;;;;;;22.90;12.82;;;230.80;1996.80;;;;;;5016120;28;20053;-66
2021/03/29 06:33:12;;;;;;;22.70;13.90;;;230.90;1920.00;;;;;;5032281;28;20041;-65
2021/03/29 06:35:38;;;;;;;26.48;14.10;;;231.20;1894.40;;;;;;5034783;28;20036;-59
2021/03/29 06:38:12;;;;;;;20.65;12.80;;;256.10;1792.00;;;;;;5035133;28;20026;-61
2021/03/29 06:40:59;;;;;;;25.83;15.67;;;256.40;1740.80;;;;;;5035707;28;20026;-66
2021/03/29 06:43:39;;;;;;;23.88;14.73;;;256.80;1715.20;;;;;;5034711;28;20274;-68
2021/03/29 06:46:06;;;;;;;21.08;12.70;;;281.70;1689.60;;;;;;5035331;28;20025;-61
2021/03/29 06:48:34;;;;;;;19.92;12.00;;;281.90;1612.80;;;;;;5034555;28;20478;-62
2021/03/29 06:51:20;;;;;;;20.95;13.40;;;282.00;1612.80;;;;;;5034402;28;20066;-64
2021/03/29 06:53:57;;;;;;;28.85;18.60;;;282.40;1587.20;;;;;;5034380;28;20502;-61
2021/03/29 06:56:35;;;;;;;40.17;25.67;;;282.40;1587.20;;;;;;5035621;28;20378;-59
2021/03/29 06:59:03;;;;;;;37.85;25.65;;;307.20;1587.20;;;;;;5035914;28;20029;-65
2021/03/29 07:01:30;;;;;;;36.30;24.65;;;333.10;1459.20;;;;;;5035346;28;20021;-64
2021/03/29 07:03:57;;;;;;;34.58;24.10;;;384.00;1254.40;;;;;;5035598;28;20020;-64
2021/03/29 07:06:28;;;;;;;25.95;18.38;;;435.70;1100.80;;;;;;5035432;28;20030;-64
2021/03/29 07:09:05;;;;;;;27.20;17.80;;;486.80;921.60;;;;;;5035525;28;20072;-56
2021/03/29 07:11:32;;;;;;;23.67;17.48;;;537.90;819.20;;;;;;5033601;28;20382;-62
2021/03/29 07:13:59;;;;;;;31.00;20.52;;;563.30;742.40;;;;;;5032842;28;20021;-56
2021/03/29 07:16:26;;;;;;;25.85;18.38;;;589.00;691.20;;;;;;5034361;28;20025;-56
2021/03/29 07:18:59;;;;;;;21.13;14.57;;;614.80;614.40;;;;;;5034054;28;20021;-57
2021/03/29 07:21:26;;;;;;;22.65;16.15;;;640.60;537.60;;;;;;5034867;28;20029;-58
2021/03/29 07:23:53;;;;;;;35.08;26.38;;;665.60;537.60;;;;;;5032904;28;20029;-56
2021/03/29 07:26:37;;;;;;;14.05;9.57;;;666.20;512.00;;;;;;5029519;28;20025;-60
2021/03/29 07:29:24;;;;;;;9.77;6.10;;;691.30;460.80;;;;;;5030851;28;20049;-57
2021/03/29 07:32:01;;;;;;;10.68;7.53;;;666.10;460.80;;;;;;5032836;28;20061;-57
2021/03/29 07:34:50;;;;;;;8.75;6.10;;;615.30;512.00;;;;;;5031328;28;20028;-58
2021/03/29 07:37:27;;;;;;;10.43;6.80;;;589.40;588.80;;;;;;5034486;28;20022;-59
2021/03/29 07:39:53;;;;;;;11.07;7.90;;;564.00;640.00;;;;;;5034172;28;20029;-58
2021/03/29 07:42:25;;;;;;;9.90;6.45;;;563.50;665.60;;;;;;5035195;28;20112;-59
2021/03/29 07:44:54;;;;;;;9.40;6.20;;;563.40;665.60;;;;;;5035145;28;20026;-57
2021/03/29 07:47:42;;;;;;;10.77;6.43;;;538.30;665.60;;;;;;5034695;28;20112;-60
2021/03/29 07:50:14;;;;;;;10.90;7.80;;;512.70;691.20;;;;;;5035108;28;20044;-62
2021/03/29 07:52:42;;;;;;;17.38;8.95;;;512.30;691.20;;;;;;5020211;28;20034;-59
2021/03/29 07:55:24;;;;;;;10.90;6.45;;;512.00;691.20;;;;;;5019699;28;20028;-62
2021/03/29 07:57:50;;;;;;;11.50;6.43;;;487.20;691.20;;;;;;5025411;28;20034;-57
2021/03/29 08:00:29;;;;;;;10.68;6.07;;;486.70;716.80;;;;;;5019153;28;20533;-59
2021/03/29 08:03:24;;;;;;;8.70;4.50;;;487.00;716.80;;;;;;5019488;28;20049;-61
2021/03/29 08:05:53;;;;;;;18.27;9.18;;;486.60;742.40;;;;;;5028560;28;20036;-59
2021/03/29 08:11:05;;;;;;;10.88;4.40;;;486.50;742.40;;;;;;5030911;28;20569;-57
2021/03/29 08:13:42;;;;;;;9.50;4.70;;;486.50;742.40;;;;;;5026202;28;20029;-56
2021/03/29 08:16:15;;;;;;;9.57;5.53;;;486.70;768.00;;;;;;5031890;28;20057;-57
2021/03/29 08:19:25;;;;;;;8.00;4.35;;;487.00;691.20;;;;;;5021203;28;20108;-56
2021/03/29 08:21:52;;;;;;;7.55;4.90;;;487.20;691.20;;;;;;5025190;28;20624;-58
2021/03/29 08:24:33;;;;;;;11.57;5.50;;;512.50;691.20;;;;;;5033467;28;20029;-60
2021/03/29 08:27:01;;;;;;;11.07;5.53;;;512.80;665.60;;;;;;5014020;28;20030;-56
2021/03/29 08:29:36;;;;;;;12.65;6.65;;;512.40;665.60;;;;;;5013690;28;20049;-57
2021/03/29 08:32:15;;;;;;;12.20;5.90;;;512.70;640.00;;;;;;5014378;28;20032;-56
2021/03/29 08:34:45;;;;;;;12.35;7.90;;;512.60;640.00;;;;;;5019366;28;20514;-57
2021/03/29 08:37:14;;;;;;;7.35;4.05;;;563.20;640.00;;;;;;5058326;28;20029;-57
2021/03/29 08:39:44;;;;;;;9.38;5.28;;;588.90;588.80;;;;;;5021901;28;20036;-56
2021/03/29 08:42:12;;;;;;;7.05;3.83;;;614.70;537.60;;;;;;5032195;28;20021;-62
2021/03/29 08:44:42;;;;;;;7.03;3.72;;;640.70;435.20;;;;;;5032962;28;20029;-56
2021/03/29 08:47:20;;;;;;;7.35;3.72;;;640.90;435.20;;;;;;5031739;28;20109;-57
2021/03/29 08:49:50;;;;;;;19.08;14.85;;;665.60;486.40;;;;;;5012132;28;20124;-58
2021/03/29 08:52:16;;;;;;;20.63;16.85;;;666.20;460.80;;;;;;5011969;28;20022;-57
2021/03/29 08:54:58;;;;;;;9.80;6.72;;;717.00;409.60;;;;;;5022380;28;20044;-57
2021/03/29 08:57:29;;;;;;;7.93;3.30;;;743.20;358.40;;;;;;5020456;28;20032;-57
2021/03/29 08:59:57;;;;;;;6.15;3.97;;;768.50;332.80;;;;;;5028489;28;20050;-61
2021/03/29 09:02:24;;;;;;;6.28;3.95;;;794.00;332.80;;;;;;5021157;28;20348;-59
2021/03/29 09:04:58;;;;;;;8.20;3.70;;;794.00;307.20;;;;;;5024943;28;20026;-61
2021/03/29 09:07:37;;;;;;;7.20;4.65;;;793.90;332.80;;;;;;5012478;28;20026;-59
2021/03/29 09:10:17;;;;;;;8.63;4.78;;;768.90;307.20;;;;;;5015601;28;20044;-58
2021/03/29 09:12:45;;;;;;;6.60;3.95;;;794.20;307.20;;;;;;5031751;28;20467;-65
2021/03/29 09:15:16;;;;;;;8.30;4.60;;;820.10;256.00;;;;;;5030648;28;20445;-57
2021/03/29 09:17:43;;;;;;;6.28;4.05;;;845.10;281.60;;;;;;5025794;28;20459;-57
2021/03/29 09:20:28;;;;;;;7.70;6.10;;;871.10;256.00;;;;;;5024857;28;20188;-57
2021/03/29 09:22:54;;;;;;;5.78;3.70;;;871.10;256.00;;;;;;5022788;28;20065;-61
2021/03/29 09:25:44;;;;;;;5.35;3.33;;;896.10;256.00;;;;;;5032703;28;20041;-58
2021/03/29 09:31:00;;;;;;;4.38;3.08;;;896.50;256.00;;;;;;5030266;28;20364;-61
2021/03/29 09:33:27;;;;;;;6.68;3.72;;;870.70;256.00;;;;;;5032576;28;20060;-61
2021/03/29 09:35:53;;;;;;;5.57;3.30;;;870.60;256.00;;;;;;5023114;28;20036;-61
2021/03/29 09:38:52;;;;;;;5.97;4.20;;;845.00;281.60;;;;;;5030463;28;20035;-65
2021/03/29 09:41:30;;;;;;;5.57;3.90;;;794.50;307.20;;;;;;5030201;28;20491;-59
2021/03/29 09:43:57;;;;;;;10.00;5.25;;;793.60;332.80;;;;;;5030171;28;20141;-60
2021/03/29 09:46:30;;;;;;;8.02;5.40;;;743.20;358.40;;;;;;5030162;28;20033;-60
2021/03/29 09:49:16;;;;;;;7.40;4.40;;;717.10;409.60;;;;;;5030317;28;20057;-60
2021/03/29 09:51:44;;;;;;;7.03;4.05;;;691.90;409.60;;;;;;5029697;28;20051;-58
2021/03/29 09:54:21;;;;;;;7.70;4.13;;;717.00;384.00;;;;;;5029981;28;20057;-57
2021/03/29 09:56:46;;;;;;;9.05;5.60;;;742.70;384.00;;;;;;5029727;28;20060;-57
2021/03/29 09:59:12;;;;;;;10.07;5.28;;;768.00;358.40;;;;;;5029982;28;20064;-59
2021/03/29 10:01:43;;;;;;;10.77;5.30;;;743.10;358.40;;;;;;5030289;28;20025;-57
2021/03/29 10:04:14;;;;;;;8.43;5.00;;;768.00;358.40;;;;;;5030531;28;20033;-59
2021/03/29 10:06:50;;;;;;;7.38;4.78;;;768.10;384.00;;;;;;5024755;28;20041;-58
2021/03/29 10:09:29;;;;;;;8.77;5.70;;;768.90;358.40;;;;;;5029304;28;20065;-58
2021/03/29 10:11:55;;;;;;;7.05;4.85;;;819.80;281.60;;;;;;5029655;28;20040;-58
2021/03/29 10:14:20;;;;;;;9.85;5.38;;;870.70;256.00;;;;;;5029864;28;20461;-60
2021/03/29 10:16:48;;;;;;;6.75;4.68;;;921.90;281.60;;;;;;5029880;28;20360;-58
2021/03/29 10:19:16;;;;;;;7.75;5.07;;;948.00;281.60;;;;;;5029511;28;20065;-58
2021/03/29 10:22:00;;;;;;;7.35;4.22;;;973.60;307.20;;;;;;5023928;28;20760;-59
2021/03/29 10:24:26;;;;;;;11.82;7.05;;;1024.50;332.80;;;;;;5058268;28;20526;-57
2021/03/29 10:27:05;;;;;;;7.40;5.38;;;1050.00;358.40;;;;;;5019070;28;20087;-58
2021/03/29 10:29:39;;;;;;;6.38;4.70;;;1050.30;358.40;;;;;;5024020;28;20072;-59
2021/03/29 10:32:11;;;;;;;6.63;5.30;;;1075.60;358.40;;;;;;5016154;28;20089;-61
2021/03/29 10:34:38;;;;;;;8.93;6.70;;;1101.30;384.00;;;;;;5027122;28;20092;-59
2021/03/29 10:37:26;;;;;;;5.13;4.10;;;1101.30;384.00;;;;;;5021882;28;20037;-60
2021/03/29 10:39:54;;;;;;;5.80;3.90;;;1101.50;384.00;;;;;;5035386;28;20057;-61
2021/03/29 10:42:21;;;;;;;4.70;3.70;;;1101.20;384.00;;;;;;5031842;28;20092;-61
2021/03/29 10:44:48;;;;;;;4.88;3.78;;;1101.70;384.00;;;;;;5035615;28;20024;-62
2021/03/29 10:47:15;;;;;;;5.10;3.70;;;1101.10;384.00;;;;;;5035642;28;20026;-58
2021/03/29 10:49:41;;;;;;;7.13;3.83;;;1126.60;409.60;;;;;;5035901;28;20033;-60
2021/03/29 10:52:08;;;;;;;5.20;3.53;;;1126.90;409.60;;;;;;5034718;28;20041;-59
2021/03/29 10:54:34;;;;;;;4.82;3.60;;;1152.30;409.60;;;;;;5030183;28;20034;-61
2021/03/29 10:57:00;;;;;;;6.85;4.43;;;1152.10;409.60;;;;;;5020202;28;20037;-64
2021/03/29 10:59:25;;;;;;;5.78;4.10;;;1152.40;409.60;;;;;;5025051;28;20025;-59
2021/03/29 11:01:51;;;;;;;5.63;3.90;;;1152.50;409.60;;;;;;5022147;28;20040;-61
2021/03/29 11:04:17;;;;;;;6.13;4.20;;;1152.50;409.60;;;;;;5018746;28;20026;-58
2021/03/29 11:06:43;;;;;;;5.88;4.40;;;1127.00;409.60;;;;;;5029212;28;20025;-58
2021/03/29 11:09:09;;;;;;;5.72;4.80;;;1126.40;409.60;;;;;;5035545;28;20080;-61
2021/03/29 11:11:35;;;;;;;17.25;12.68;;;1101.10;384.00;;;;;;5034813;28;20048;-60
2021/03/29 11:14:00;;;;;;;17.80;15.25;;;1126.50;409.60;;;;;;5031487;28;20076;-58
2021/03/29 11:16:27;;;;;;;6.43;4.90;;;1126.80;409.60;;;;;;5023677;28;20025;-60
2021/03/29 11:18:53;;;;;;;7.35;4.32;;;1101.60;384.00;;;;;;5027233;28;20026;-62
2021/03/29 11:21:19;;;;;;;4.43;3.30;;;1126.50;409.60;;;;;;5023608;28;20037;-61
2021/03/29 11:23:45;;;;;;;6.25;4.72;;;1127.30;409.60;;;;;;5027116;28;20055;-59
2021/03/29 11:26:11;;;;;;;6.07;3.22;;;1152.90;409.60;;;;;;5035170;28;20057;-60
2021/03/29 11:28:37;;;;;;;7.95;4.03;;;1177.70;409.60;;;;;;5034724;28;20038;-62
2021/03/29 11:31:03;;;;;;;4.70;3.60;;;1152.60;409.60;;;;;;5034552;28;20021;-64
2021/03/29 11:33:29;;;;;;;4.57;3.00;;;1152.90;409.60;;;;;;5033701;28;20513;-64
2021/03/29 11:35:55;;;;;;;8.65;6.63;;;1178.00;409.60;;;;;;5032300;28;20037;-62
2021/03/29 11:38:21;;;;;;;6.35;4.50;;;1152.90;409.60;;;;;;5034338;28;20033;-63
2021/03/29 11:40:47;;;;;;;11.38;7.53;;;1152.80;409.60;;;;;;5034032;28;20037;-60
2021/03/29 11:43:13;;;;;;;5.68;3.03;;;1177.70;409.60;;;;;;5034132;28;20475;-63
2021/03/29 11:45:39;;;;;;;4.70;2.90;;;1203.20;435.20;;;;;;5034453;28;20049;-62
2021/03/29 11:48:05;;;;;;;4.32;2.75;;;1177.70;409.60;;;;;;5033341;28;20018;-60
2021/03/29 11:50:31;;;;;;;5.07;3.95;;;1152.10;409.60;;;;;;5033091;28;20029;-60
2021/03/29 11:52:57;;;;;;;6.57;3.53;;;1126.90;409.60;;;;;;5018374;28;20475;-64
2021/03/29 11:55:23;;;;;;;9.18;6.95;;;1101.00;384.00;;;;;;5033206;28;20033;-58
2021/03/29 11:57:50;;;;;;;7.22;5.00;;;1075.80;358.40;;;;;;5033817;28;20231;-60
2021/03/29 12:05:33;;;;;;;8.75;6.10;;;1024.60;332.80;;;;;;5032858;28;20052;-58
2021/03/29 12:13:14;;;;;;;6.25;3.72;;;947.20;281.60;;;;;;5031178;28;20052;-58
2021/03/29 12:15:42;;;;;;;7.85;4.20;;;896.60;256.00;;;;;;5031738;28;20033;-59
2021/03/29 12:18:10;;;;;;;5.45;3.50;;;896.70;256.00;;;;;;5031409;28;20026;-59
2021/03/29 12:20:36;;;;;;;5.85;4.03;;;896.80;256.00;;;;;;5032141;28;20037;-57
2021/03/29 12:23:03;;;;;;;9.50;8.30;;;896.80;256.00;;;;;;5033678;28;20383;-58
2021/03/29 12:25:30;;;;;;;4.78;2.60;;;922.30;281.60;;;;;;5034576;28;20037;-58
2021/03/29 12:27:57;;;;;;;5.70;3.35;;;947.50;281.60;;;;;;5034574;28;20151;-60
2021/03/29 12:30:23;;;;;;;5.15;3.13;;;947.80;281.60;;;;;;5034230;28;20042;-59
2021/03/29 12:32:49;;;;;;;5.57;3.42;;;947.90;281.60;;;;;;5034743;28;20033;-58
2021/03/29 12:35:20;;;;;;;5.50;3.50;;;973.60;307.20;;;;;;5034431;28;20031;-60
2021/03/29 12:37:48;;;;;;;5.25;3.00;;;1024.10;332.80;;;;;;5034473;28;20029;-61
2021/03/29 12:40:16;;;;;;;6.10;4.50;;;1024.50;332.80;;;;;;5030588;28;20041;-62